createdAt,value
2022-09-29T00:01:33.557Z,96258.47
2022-09-29T00:04:09.877Z,96255.88
2022-09-29T00:06:40.195Z,96244.56
2022-09-29T00:09:15.010Z,96245.44
2022-09-29T00:11:44.725Z,96247.03
2022-09-29T00:14:15.551Z,96249.47
2022-09-29T00:16:46.806Z,96252.03
2022-09-29T00:19:22.273Z,96249.63
2022-09-29T00:21:55.212Z,96250.59
2022-09-29T00:24:27.241Z,96250.16
2022-09-29T00:27:01.588Z,96236.94
2022-09-29T00:29:41.052Z,96231.38
2022-09-29T00:32:13.867Z,96225.59
2022-09-29T00:35:01.787Z,96220.84
2022-09-29T00:37:41.835Z,96213.97
2022-09-29T00:40:17.787Z,96218.28
2022-09-29T00:42:54.821Z,96221.38
2022-09-29T00:45:41.307Z,96223.88
2022-09-29T00:48:21.723Z,96219.09
2022-09-29T00:51:11.271Z,96217.94
2022-09-29T00:53:47.368Z,96219.84
2022-09-29T00:56:21.788Z,96216.16
2022-09-29T00:59:11.883Z,96204.88
2022-09-29T01:01:39.588Z,96201.16
2022-09-29T01:04:27.117Z,96198.69
2022-09-29T01:07:10.143Z,96196.31
2022-09-29T01:09:51.957Z,96180.59
2022-09-29T01:12:24.847Z,96188.75
2022-09-29T01:14:55.244Z,96178.47
2022-09-29T01:17:23.876Z,96190.06
2022-09-29T01:20:13.651Z,96179.47
2022-09-29T01:23:38.312Z,96164.25
2022-09-29T01:27:01.839Z,96153.25
2022-09-29T01:29:51.989Z,96149.72
2022-09-29T01:32:53.199Z,96157.59
2022-09-29T01:35:59.677Z,96140.97
2022-09-29T01:38:48.258Z,96139.16
2022-09-29T01:41:49.568Z,96140.41
2022-09-29T01:44:55.432Z,96135.94
2022-09-29T01:47:50.025Z,96147.16
2022-09-29T01:50:40.504Z,96124.16
2022-09-29T01:53:36.445Z,96122.94
2022-09-29T01:56:55.556Z,96111.50
2022-09-29T01:59:42.343Z,96108.69
2022-09-29T02:02:23.033Z,96095.03
2022-09-29T02:05:04.306Z,96100.03
2022-09-29T02:07:48.831Z,96087.38
2022-09-29T02:10:41.093Z,96096.53
2022-09-29T02:13:13.523Z,96097.81
2022-09-29T02:15:54.850Z,96095.66
2022-09-29T02:18:40.584Z,96087.97
2022-09-29T02:21:10.522Z,96093.63
2022-09-29T02:23:39.377Z,96089.59
2022-09-29T02:26:17.770Z,96091.31
2022-09-29T02:28:51.919Z,96089.00
2022-09-29T02:31:24.039Z,96089.72
2022-09-29T02:33:59.800Z,96087.47
2022-09-29T02:37:12.241Z,96076.81
2022-09-29T02:39:48.425Z,96088.47
2022-09-29T02:42:58.322Z,96107.97
2022-09-29T02:46:05.974Z,96106.88
2022-09-29T02:49:19.869Z,96102.16
2022-09-29T02:52:26.874Z,96111.25
2022-09-29T02:55:20.820Z,96112.63
2022-09-29T02:58:27.963Z,96103.59
2022-09-29T03:01:12.983Z,96110.63
2022-09-29T03:03:50.292Z,96107.94
2022-09-29T03:06:25.251Z,96123.31
2022-09-29T03:08:55.679Z,96110.88
2022-09-29T03:11:35.501Z,96103.22
2022-09-29T03:14:08.479Z,96113.66
2022-09-29T03:16:37.283Z,96108.75
2022-09-29T03:19:14.606Z,96100.78
2022-09-29T03:21:51.444Z,96099.03
2022-09-29T03:24:33.119Z,96098.94
2022-09-29T03:27:26.402Z,96101.19
2022-09-29T03:29:58.077Z,96099.69
2022-09-29T03:32:31.797Z,96097.28
2022-09-29T03:35:10.555Z,96112.72
2022-09-29T03:37:37.924Z,96114.47
2022-09-29T03:45:56.976Z,96122.38
2022-09-29T03:48:42.853Z,96121.16
2022-09-29T03:51:20.961Z,96120.16
2022-09-29T03:53:53.824Z,96124.06
2022-09-29T03:56:36.107Z,96130.28
2022-09-29T03:59:13.184Z,96127.31
2022-09-29T04:01:48.528Z,96124.22
2022-09-29T04:04:24.104Z,96125.66
2022-09-29T04:06:51.546Z,96137.56
2022-09-29T04:09:22.802Z,96126.81
2022-09-29T04:11:52.602Z,96133.00
2022-09-29T04:14:30.594Z,96136.59
2022-09-29T04:17:02.485Z,96130.66
2022-09-29T04:19:42.761Z,96134.53
2022-09-29T04:22:10.166Z,96135.78
2022-09-29T04:24:44.454Z,96137.44
2022-09-29T04:27:22.513Z,96143.94
2022-09-29T04:29:56.071Z,96136.00
2022-09-29T04:32:30.391Z,96141.25
2022-09-29T04:35:11.319Z,96160.59
2022-09-29T04:38:02.431Z,96166.00
2022-09-29T04:40:37.845Z,96170.16
2022-09-29T04:43:16.695Z,96172.19
2022-09-29T04:45:48.247Z,96186.75
2022-09-29T04:48:26.511Z,96190.19
2022-09-29T04:50:58.303Z,96189.22
2022-09-29T04:53:45.784Z,96196.63
2022-09-29T04:56:17.869Z,96187.91
2022-09-29T04:58:48.130Z,96181.97
2022-09-29T05:01:36.452Z,96180.66
2022-09-29T05:04:12.766Z,96177.84
2022-09-29T05:06:51.743Z,96178.47
2022-09-29T05:09:42.413Z,96181.63
2022-09-29T05:12:17.115Z,96176.69
2022-09-29T05:14:49.559Z,96169.53
2022-09-29T05:17:26.824Z,96164.31
2022-09-29T05:20:01.948Z,96167.19
2022-09-29T05:22:37.249Z,96172.59
2022-09-29T05:25:09.433Z,96181.25
2022-09-29T05:27:45.704Z,96187.66
2022-09-29T05:30:18.034Z,96193.34
2022-09-29T05:33:01.030Z,96198.94
2022-09-29T05:35:52.682Z,96205.19
2022-09-29T05:38:24.307Z,96204.56
2022-09-29T05:41:16.433Z,96196.22
2022-09-29T05:43:55.960Z,96206.66
2022-09-29T05:46:36.174Z,96208.88
2022-09-29T05:49:06.431Z,96214.72
2022-09-29T05:51:37.385Z,96224.38
2022-09-29T05:54:07.550Z,96219.13
2022-09-29T05:56:45.535Z,96211.50
2022-09-29T05:59:21.566Z,96219.19
2022-09-29T06:01:50.403Z,96224.47
2022-09-29T06:04:24.418Z,96230.97
2022-09-29T06:06:57.576Z,96237.66
2022-09-29T06:09:24.978Z,96234.00
2022-09-29T06:12:11.536Z,96233.84
2022-09-29T06:14:41.289Z,96241.22
2022-09-29T06:17:20.259Z,96221.81
2022-09-29T06:20:20.113Z,96231.13
2022-09-29T06:23:02.966Z,96232.88
2022-09-29T06:25:36.587Z,96245.97
2022-09-29T06:28:21.795Z,96241.50
2022-09-29T06:31:05.352Z,96250.34
2022-09-29T06:33:39.674Z,96243.25
2022-09-29T06:36:51.482Z,96251.63
2022-09-29T06:39:28.641Z,96252.84
2022-09-29T06:42:04.273Z,96261.59
2022-09-29T06:44:34.418Z,96267.09
2022-09-29T06:47:12.994Z,96250.81
2022-09-29T06:49:52.979Z,96256.16
2022-09-29T06:52:38.999Z,96249.63
2022-09-29T06:55:10.272Z,96253.50
2022-09-29T06:57:52.435Z,96238.63
2022-09-29T07:00:26.288Z,96238.91
2022-09-29T07:02:57.578Z,96227.88
2022-09-29T07:05:43.737Z,96220.59
2022-09-29T07:08:24.916Z,96223.75
2022-09-29T07:11:03.462Z,96215.94
2022-09-29T07:13:52.281Z,96211.69
2022-09-29T07:16:24.500Z,96210.69
2022-09-29T07:19:02.517Z,96215.84
2022-09-29T07:21:57.826Z,96218.16
2022-09-29T07:24:35.305Z,96212.75
2022-09-29T07:27:13.330Z,96211.09
2022-09-29T07:29:45.047Z,96204.03
2022-09-29T07:32:33.018Z,96214.72
2022-09-29T07:35:06.306Z,96206.47
2022-09-29T07:37:40.290Z,96210.13
2022-09-29T07:40:17.494Z,96218.78
2022-09-29T07:42:51.811Z,96207.69
2022-09-29T07:45:35.216Z,96231.44
2022-09-29T07:48:11.977Z,96225.28
2022-09-29T07:50:43.152Z,96220.97
2022-09-29T07:53:15.235Z,96228.09
2022-09-29T07:55:48.553Z,96227.53
2022-09-29T07:58:29.777Z,96235.06
2022-09-29T08:01:06.101Z,96239.44
2022-09-29T08:03:36.706Z,96251.50
2022-09-29T08:06:15.138Z,96229.81
2022-09-29T08:08:56.242Z,96238.06
2022-09-29T08:11:51.373Z,96242.19
2022-09-29T08:14:29.802Z,96249.16
2022-09-29T08:17:07.512Z,96234.34
2022-09-29T08:19:47.352Z,96226.94
2022-09-29T08:22:15.134Z,96220.53
2022-09-29T08:25:01.975Z,96207.94
2022-09-29T08:27:49.159Z,96221.50
2022-09-29T08:30:37.355Z,96224.56
2022-09-29T08:33:28.943Z,96227.19
2022-09-29T08:36:17.483Z,96222.53
2022-09-29T08:38:56.034Z,96223.53
2022-09-29T08:41:48.038Z,96221.66
2022-09-29T08:44:42.201Z,96223.13
2022-09-29T08:47:47.359Z,96223.84
2022-09-29T08:51:09.889Z,96237.66
2022-09-29T08:54:02.845Z,96236.31
2022-09-29T08:56:43.464Z,96244.19
2022-09-29T08:59:14.455Z,96247.72
2022-09-29T09:02:27.400Z,96257.47
2022-09-29T09:05:36.711Z,96260.69
2022-09-29T09:08:24.167Z,96266.34
2022-09-29T09:11:41.024Z,96274.28
2022-09-29T09:14:41.487Z,96261.00
2022-09-29T09:17:59.147Z,96270.38
2022-09-29T09:20:54.343Z,96266.94
2022-09-29T09:23:50.970Z,96273.84
2022-09-29T09:26:36.814Z,96272.50
2022-09-29T09:29:38.016Z,96267.84
2022-09-29T09:32:26.525Z,96272.56
2022-09-29T09:35:22.017Z,96259.16
2022-09-29T09:38:00.030Z,96269.22
2022-09-29T09:40:40.488Z,96262.94
2022-09-29T09:43:48.537Z,96267.91
2022-09-29T09:47:01.373Z,96269.13
2022-09-29T09:49:47.253Z,96266.50
2022-09-29T09:52:36.048Z,96273.97
2022-09-29T09:55:31.490Z,96254.44
2022-09-29T09:58:45.892Z,96263.47
2022-09-29T10:01:19.155Z,96261.72
2022-09-29T10:03:55.230Z,96252.00
2022-09-29T10:06:37.407Z,96253.19
2022-09-29T10:09:21.421Z,96267.09
2022-09-29T10:11:56.450Z,96278.91
2022-09-29T10:14:45.716Z,96256.03
2022-09-29T10:17:33.856Z,96244.28
2022-09-29T10:20:08.341Z,96244.03
2022-09-29T10:22:39.555Z,96250.41
2022-09-29T10:25:14.788Z,96245.81
2022-09-29T10:27:55.101Z,96240.75
2022-09-29T10:30:40.464Z,96252.63
2022-09-29T10:33:25.197Z,96250.66
2022-09-29T10:36:12.025Z,96237.09
2022-09-29T10:39:00.931Z,96254.84
2022-09-29T10:41:54.885Z,96258.44
2022-09-29T10:44:34.826Z,96256.75
2022-09-29T10:47:23.383Z,96261.53
2022-09-29T10:50:30.996Z,96266.03
2022-09-29T10:53:07.922Z,96268.94
2022-09-29T10:56:12.261Z,96265.78
2022-09-29T10:59:06.247Z,96256.44
2022-09-29T11:01:55.466Z,96255.50
2022-09-29T11:04:41.923Z,96259.66
2022-09-29T11:07:38.977Z,96257.22
2022-09-29T11:10:41.605Z,96269.22
2022-09-29T11:13:28.981Z,96266.59
2022-09-29T11:16:49.358Z,96254.13
2022-09-29T11:19:45.837Z,96253.00
2022-09-29T11:22:41.054Z,96237.88
2022-09-29T11:25:55.135Z,96223.75
2022-09-29T11:29:08.645Z,96220.25
2022-09-29T11:32:26.727Z,96238.94
2022-09-29T11:35:23.230Z,96251.59
2022-09-29T11:38:39.815Z,96236.22
2022-09-29T11:41:43.437Z,96244.41
2022-09-29T11:44:31.949Z,96234.16
2022-09-29T11:47:25.958Z,96240.22
2022-09-29T11:50:36.672Z,96228.50
2022-09-29T11:53:43.627Z,96220.94
2022-09-29T11:56:50.600Z,96212.06
2022-09-29T12:00:41.814Z,96212.06
2022-09-29T12:03:54.852Z,96198.31
2022-09-29T12:07:26.589Z,96196.47
2022-09-29T12:10:59.478Z,96190.03
2022-09-29T12:14:02.189Z,96151.47
2022-09-29T12:16:45.839Z,96212.63
2022-09-29T12:19:38.076Z,96198.31
2022-09-29T12:22:24.999Z,96190.25
2022-09-29T12:25:08.938Z,96217.03
2022-09-29T12:27:55.723Z,96185.19
2022-09-29T12:30:58.084Z,96184.16
2022-09-29T12:34:46.451Z,96185.78
2022-09-29T12:37:57.977Z,96176.50
2022-09-29T12:43:51.913Z,96173.41
2022-09-29T12:46:38.305Z,96181.13
2022-09-29T12:49:40.652Z,96166.34
2022-09-29T12:53:08.340Z,96161.91
2022-09-29T12:56:32.416Z,96177.00
2022-09-29T12:59:20.617Z,96162.16
2022-09-29T13:02:01.187Z,96152.75
2022-09-29T13:05:11.597Z,96145.34
2022-09-29T13:08:27.599Z,96151.84
2022-09-29T13:11:42.010Z,96161.16
2022-09-29T13:15:05.240Z,96169.13
2022-09-29T13:18:44.881Z,96171.03
2022-09-29T13:22:08.583Z,96149.50
2022-09-29T13:25:11.682Z,96181.00
2022-09-29T13:28:22.197Z,96172.44
2022-09-29T13:30:52.269Z,96189.44
2022-09-29T13:33:40.067Z,96185.69
2022-09-29T13:36:24.739Z,96201.78
2022-09-29T13:39:02.291Z,96190.56
2022-09-29T13:41:40.740Z,96189.09
2022-09-29T13:44:23.759Z,96197.09
2022-09-29T13:46:53.991Z,96186.28
2022-09-29T13:49:43.149Z,96188.09
2022-09-29T13:52:14.596Z,96179.41
2022-09-29T13:55:00.179Z,96189.38
2022-09-29T13:57:29.763Z,96181.09
2022-09-29T14:00:05.700Z,96178.03
2022-09-29T14:03:05.737Z,96177.63
2022-09-29T14:05:54.031Z,96185.81
2022-09-29T14:08:42.837Z,96201.06
2022-09-29T14:11:48.311Z,96198.22
2022-09-29T14:14:46.085Z,96191.34
2022-09-29T14:18:00.350Z,96214.19
2022-09-29T14:20:41.009Z,96214.84
2022-09-29T14:23:14.146Z,96223.91
2022-09-29T14:25:46.110Z,96213.47
2022-09-29T14:28:41.250Z,96195.19
2022-09-29T14:31:26.094Z,96179.38
2022-09-29T14:34:07.876Z,96165.69
2022-09-29T14:36:39.105Z,96140.44
2022-09-29T14:39:32.726Z,96156.25
2022-09-29T14:42:47.236Z,96173.34
2022-09-29T14:45:36.186Z,96167.50
2022-09-29T14:57:35.197Z,96133.81
2022-09-29T15:00:29.211Z,96118.19
2022-09-29T15:03:26.641Z,96113.56
2022-09-29T15:06:28.270Z,96130.00
2022-09-29T15:09:28.573Z,96138.13
2022-09-29T15:12:45.142Z,96127.31
2022-09-29T15:15:38.515Z,96122.13
2022-09-29T15:18:42.385Z,96118.50
2022-09-29T15:21:32.787Z,96112.44
2022-09-29T15:24:29.908Z,96111.34
2022-09-29T15:27:06.915Z,96128.16
2022-09-29T15:29:37.649Z,96137.28
2022-09-29T15:32:24.288Z,96143.56
2022-09-29T15:35:00.997Z,96113.06
2022-09-29T15:37:54.890Z,96091.28
2022-09-29T15:40:39.856Z,96076.06
2022-09-29T15:43:34.769Z,96099.63
2022-09-29T15:46:20.639Z,96076.44
2022-09-29T15:49:22.062Z,96084.72
2022-09-29T15:52:15.250Z,96087.84
2022-09-29T15:54:50.138Z,96077.81
2022-09-29T15:57:58.136Z,96056.25
2022-09-29T16:00:27.120Z,96057.66
2022-09-29T16:03:33.709Z,96063.53
2022-09-29T16:06:19.819Z,96058.66
2022-09-29T16:13:36.575Z,96019.84
2022-09-29T16:25:23.375Z,95989.31
2022-09-29T16:28:07.498Z,95987.16
2022-09-29T16:30:40.539Z,95975.53
2022-09-29T16:33:22.859Z,95981.13
2022-09-29T16:36:18.094Z,95970.25
2022-09-29T16:38:48.239Z,95978.06
2022-09-29T16:41:34.542Z,95976.00
2022-09-29T16:44:10.787Z,95968.38
2022-09-29T16:46:50.208Z,95972.75
2022-09-29T16:49:29.640Z,95968.09
2022-09-29T16:52:11.466Z,95972.88
2022-09-29T16:54:44.972Z,95979.56
2022-09-29T16:57:33.227Z,95972.03
2022-09-29T17:00:07.855Z,95981.47
2022-09-29T17:02:35.040Z,95965.81
2022-09-29T17:05:05.126Z,95969.66
2022-09-29T17:07:38.824Z,95971.13
2022-09-29T17:10:07.619Z,95977.00
2022-09-29T17:12:34.726Z,95972.06
2022-09-29T17:15:04.794Z,95981.16
2022-09-29T17:17:34.872Z,95991.22
2022-09-29T17:20:02.467Z,95999.78
2022-09-29T17:22:34.688Z,95986.25
2022-09-29T17:25:02.761Z,95995.75
2022-09-29T17:27:48.968Z,95988.34
2022-09-29T17:30:23.999Z,96000.09
2022-09-29T17:32:57.223Z,96007.19
2022-09-29T17:35:36.071Z,96002.09
2022-09-29T17:38:07.988Z,96011.81
2022-09-29T17:40:49.925Z,96025.66
2022-09-29T17:43:19.180Z,96028.91
2022-09-29T17:45:47.566Z,96028.63
2022-09-29T17:48:15.488Z,96026.81
2022-09-29T17:50:56.521Z,96032.19
2022-09-29T17:53:32.595Z,96032.94
2022-09-29T17:56:03.578Z,96042.41
2022-09-29T17:58:31.153Z,96053.56
2022-09-29T18:00:59.043Z,96046.72
2022-09-29T18:03:26.879Z,96050.50
2022-09-29T18:05:58.417Z,96036.50
2022-09-29T18:08:34.355Z,96049.16
2022-09-29T18:11:02.800Z,96047.16
2022-09-29T18:13:32.151Z,96052.88
2022-09-29T18:16:02.352Z,96055.16
2022-09-29T18:18:30.114Z,96066.03
2022-09-29T18:20:58.741Z,96057.97
2022-09-29T18:23:25.895Z,96052.63
2022-09-29T18:25:54.161Z,96036.38
2022-09-29T18:28:21.391Z,96038.22
2022-09-29T18:30:52.434Z,96038.41
2022-09-29T18:33:21.105Z,96030.47
2022-09-29T18:35:55.303Z,96025.88
2022-09-29T18:38:24.451Z,96009.75
2022-09-29T18:40:56.945Z,96018.47
2022-09-29T18:43:27.411Z,96019.91
2022-09-29T18:45:55.995Z,96024.28
2022-09-29T18:48:23.476Z,96020.81
2022-09-29T18:50:56.906Z,96025.78
2022-09-29T18:53:28.132Z,96035.50
2022-09-29T18:56:03.184Z,96033.06
2022-09-29T18:58:30.746Z,96039.91
2022-09-29T19:00:58.911Z,96045.63
2022-09-29T19:03:29.357Z,96035.50
2022-09-29T19:05:57.208Z,96063.19
2022-09-29T19:08:25.141Z,96061.59
2022-09-29T19:10:58.577Z,96069.44
2022-09-29T19:13:26.175Z,96074.00
2022-09-29T19:16:00.316Z,96062.81
2022-09-29T19:18:27.766Z,96077.44
2022-09-29T19:21:00.716Z,96073.53
2022-09-29T19:23:28.756Z,96067.94
2022-09-29T19:25:58.794Z,96068.34
2022-09-29T19:28:28.030Z,96062.03
2022-09-29T19:31:04.914Z,96054.34
2022-09-29T19:33:33.757Z,96054.53
2022-09-29T19:36:12.148Z,96041.97
2022-09-29T19:38:40.214Z,96044.72
2022-09-29T19:41:22.462Z,96044.88
2022-09-29T19:43:51.473Z,96045.41
2022-09-29T19:46:20.814Z,96053.69
2022-09-29T19:48:48.674Z,96060.22
2022-09-29T19:51:38.421Z,96063.66
2022-09-29T19:54:15.132Z,96080.75
2022-09-29T19:56:56.327Z,96087.78
2022-09-29T19:59:29.498Z,96102.56
2022-09-29T20:01:56.926Z,96111.06
2022-09-29T20:04:31.459Z,96114.16
2022-09-29T20:07:00.678Z,96100.13
2022-09-29T20:09:28.584Z,96107.66
2022-09-29T20:11:56.329Z,96098.00
2022-09-29T20:14:25.579Z,96087.97
2022-09-29T20:17:00.321Z,96096.81
2022-09-29T20:19:32.178Z,96095.50
2022-09-29T20:21:59.916Z,96086.78
2022-09-29T20:24:27.352Z,96110.13
2022-09-29T20:26:58.150Z,96122.81
2022-09-29T20:29:28.409Z,96126.88
2022-09-29T20:31:56.737Z,96128.25
2022-09-29T20:34:24.442Z,96131.91
2022-09-29T20:36:54.743Z,96144.13
2022-09-29T20:39:26.299Z,96136.16
2022-09-29T20:41:59.496Z,96132.91
2022-09-29T20:44:30.316Z,96134.25
2022-09-29T20:47:01.319Z,96121.09
2022-09-29T20:49:31.505Z,96122.25
2022-09-29T20:51:59.580Z,96130.69
2022-09-29T20:54:27.086Z,96137.19
2022-09-29T20:56:54.820Z,96142.66
2022-09-29T20:59:23.825Z,96150.88
2022-09-29T21:01:53.992Z,96157.19
2022-09-29T21:04:23.063Z,96168.72
2022-09-29T21:06:52.553Z,96179.81
2022-09-29T21:09:30.962Z,96206.16
2022-09-29T21:11:58.210Z,96217.16
2022-09-29T21:14:28.057Z,96228.44
2022-09-29T21:17:01.368Z,96242.13
2022-09-29T21:19:28.656Z,96250.94
2022-09-29T21:21:57.135Z,96256.69
2022-09-29T21:24:24.718Z,96252.69
2022-09-29T21:26:52.144Z,96265.88
2022-09-29T21:29:21.086Z,96262.38
2022-09-29T21:31:49.359Z,96266.84
2022-09-29T21:34:20.270Z,96262.41
2022-09-29T21:36:47.578Z,96273.75
2022-09-29T21:39:19.208Z,96271.91
2022-09-29T21:41:47.601Z,96281.31
2022-09-29T21:44:24.598Z,96276.56
2022-09-29T21:46:52.479Z,96289.81
2022-09-29T21:49:20.935Z,96275.41
2022-09-29T21:51:59.978Z,96283.97
2022-09-29T21:54:30.396Z,96285.69
2022-09-29T21:56:57.809Z,96289.63
2022-09-29T21:59:25.205Z,96300.47
2022-09-29T22:01:53.124Z,96299.94
2022-09-29T22:04:21.916Z,96284.63
2022-09-29T22:06:51.372Z,96289.63
2022-09-29T22:09:22.117Z,96290.22
2022-09-29T22:11:56.069Z,96305.31
2022-09-29T22:14:24.556Z,96300.44
2022-09-29T22:16:55.209Z,96297.66
2022-09-29T22:19:23.823Z,96297.03
2022-09-29T22:22:00.968Z,96291.00
2022-09-29T22:24:33.252Z,96291.19
2022-09-29T22:27:00.342Z,96292.19
2022-09-29T22:29:28.174Z,96295.44
2022-09-29T22:31:55.344Z,96289.19
2022-09-29T22:34:22.571Z,96292.00
2022-09-29T22:36:49.696Z,96284.00
2022-09-29T22:39:17.204Z,96290.56
2022-09-29T22:41:44.469Z,96293.16
2022-09-29T22:44:12.557Z,96293.50
2022-09-29T22:46:39.833Z,96291.22
2022-09-29T22:49:07.146Z,96289.09
2022-09-29T22:51:34.368Z,96299.75
2022-09-29T22:54:01.573Z,96303.22
2022-09-29T22:56:29.284Z,96301.66
2022-09-29T22:59:06.690Z,96313.84
2022-09-29T23:01:36.058Z,96320.72
2022-09-29T23:04:04.376Z,96329.63
2022-09-29T23:06:35.354Z,96343.25
2022-09-29T23:09:02.727Z,96354.41
2022-09-29T23:11:31.456Z,96361.75
2022-09-29T23:14:00.878Z,96363.06
2022-09-29T23:16:29.633Z,96365.69
2022-09-29T23:18:58.831Z,96344.41
2022-09-29T23:21:26.474Z,96336.94
2022-09-29T23:24:00.479Z,96332.53
2022-09-29T23:26:30.691Z,96357.25
2022-09-29T23:28:59.056Z,96372.25
2022-09-29T23:31:29.932Z,96394.09
2022-09-29T23:34:00.325Z,96396.13
2022-09-29T23:36:30.204Z,96391.56
2022-09-29T23:39:11.238Z,96383.28
2022-09-29T23:41:48.386Z,96395.56
2022-09-29T23:44:26.032Z,96406.63
2022-09-29T23:46:55.664Z,96412.19
2022-09-29T23:49:28.986Z,96413.63
2022-09-29T23:52:00.542Z,96425.09
2022-09-29T23:54:32.172Z,96428.19
2022-09-29T23:57:00.694Z,96433.09
2022-09-29T23:59:28.913Z,96430.81
